Time;durP1;ratioP1;P1;durP2;ratioP2;P2;SDS_P1;SDS_P2;PMS_P1;PMS_P2;Temp;Humidity;BMP_temperature;BMP_pressure;BME280_temperature;BME280_humidity;BME280_pressure;Samples;Min_cycle;Max_cycle;Signal;HPM_P1;HPM_P2
2023/01/25 00:00:05;;;;;;;61.20;38.90;;;-0.80;99.90;;;;;;5015477;28;20057;-72
2023/01/25 00:02:31;;;;;;;60.15;40.35;;;-0.90;99.90;;;;;;5010226;28;20022;-72
2023/01/25 00:04:57;;;;;;;58.00;39.53;;;-1.00;99.90;;;;;;5015718;28;20014;-72
2023/01/25 00:07:22;;;;;;;61.38;39.20;;;-1.00;99.90;;;;;;5012360;28;20076;-72
2023/01/25 00:09:48;;;;;;;60.47;41.33;;;-1.10;99.90;;;;;;5014270;28;20100;-72
2023/01/25 00:12:14;;;;;;;57.88;39.15;;;-1.20;99.90;;;;;;5008192;28;20375;-73
2023/01/25 00:14:40;;;;;;;62.75;39.63;;;-1.20;99.90;;;;;;5015289;28;20044;-73
2023/01/25 00:17:05;;;;;;;59.72;40.58;;;-1.30;99.90;;;;;;5008187;28;20034;-73
2023/01/25 00:19:31;;;;;;;64.47;42.70;;;-1.30;99.90;;;;;;5015084;28;20025;-72
2023/01/25 00:21:57;;;;;;;72.68;46.08;;;-1.30;99.90;;;;;;5010266;28;20081;-73
2023/01/25 00:24:24;;;;;;;65.78;42.75;;;-1.30;99.90;;;;;;5014179;28;20026;-73
2023/01/25 00:26:50;;;;;;;67.18;40.33;;;-1.30;99.90;;;;;;5011115;28;20077;-73
2023/01/25 00:29:15;;;;;;;50.55;34.55;;;-1.30;99.90;;;;;;5001630;28;20013;-73
2023/01/25 00:31:55;;;;;;;51.08;35.28;;;-1.20;99.90;;;;;;5008076;28;20477;-73
2023/01/25 00:34:24;;;;;;;48.87;29.77;;;-1.20;99.90;;;;;;5005929;28;20034;-73
2023/01/25 00:37:32;;;;;;;47.15;29.58;;;-1.20;99.90;;;;;;5014094;28;20564;-73
2023/01/25 00:39:58;;;;;;;45.05;28.95;;;-1.20;99.90;;;;;;5000664;28;20042;-73
2023/01/25 00:42:24;;;;;;;42.00;29.13;;;-1.20;99.90;;;;;;5014538;28;20030;-73
2023/01/25 00:44:49;;;;;;;43.65;28.50;;;-1.20;99.90;;;;;;5009510;28;20084;-73
2023/01/25 00:47:16;;;;;;;42.75;28.95;;;-1.10;99.90;;;;;;5011668;28;20037;-73
2023/01/25 00:49:43;;;;;;;43.92;30.92;;;-1.00;99.90;;;;;;5017691;28;20037;-73
2023/01/25 00:52:09;;;;;;;56.78;36.08;;;-1.10;99.90;;;;;;5011634;28;20026;-73
2023/01/25 00:54:35;;;;;;;59.58;36.80;;;-1.10;99.90;;;;;;5017457;28;20498;-73
2023/01/25 00:57:01;;;;;;;55.80;37.30;;;-1.20;99.90;;;;;;5014353;28;20374;-73
2023/01/25 00:59:27;;;;;;;66.18;42.03;;;-1.20;99.90;;;;;;5017049;28;20103;-73
2023/01/25 01:01:53;;;;;;;66.97;44.85;;;-1.30;99.90;;;;;;5009599;28;20025;-73
2023/01/25 01:04:23;;;;;;;55.95;38.92;;;-1.40;99.90;;;;;;5014967;28;20022;-73
2023/01/25 01:06:50;;;;;;;57.38;36.70;;;-1.40;99.90;;;;;;5013188;28;20033;-73
2023/01/25 01:09:17;;;;;;;51.80;35.42;;;-1.50;99.90;;;;;;5014807;28;20053;-73
2023/01/25 01:11:43;;;;;;;46.13;32.58;;;-1.60;99.90;;;;;;5010106;28;20026;-73
2023/01/25 01:14:10;;;;;;;48.50;30.77;;;-1.60;99.90;;;;;;5011326;28;20060;-73
2023/01/25 01:16:35;;;;;;;50.53;32.22;;;-1.60;99.90;;;;;;5012275;28;20038;-73
2023/01/25 01:19:01;;;;;;;48.08;30.80;;;-1.60;99.90;;;;;;5010402;28;20030;-73
2023/01/25 01:21:27;;;;;;;48.63;32.30;;;-1.50;99.90;;;;;;5013223;28;20022;-73
2023/01/25 01:23:54;;;;;;;51.40;31.13;;;-1.50;99.90;;;;;;5010366;28;20026;-73
2023/01/25 01:26:20;;;;;;;47.38;33.13;;;-1.50;99.90;;;;;;5009949;28;20029;-73
2023/01/25 01:28:46;;;;;;;48.40;33.45;;;-1.50;99.90;;;;;;4998613;28;20111;-73
2023/01/25 01:31:15;;;;;;;50.80;33.90;;;-1.40;99.90;;;;;;5010654;28;20033;-73
2023/01/25 01:33:41;;;;;;;47.38;32.35;;;-1.50;99.90;;;;;;4999802;28;20030;-73
2023/01/25 01:36:07;;;;;;;53.63;33.78;;;-1.50;99.90;;;;;;5009431;28;20026;-74
2023/01/25 01:38:33;;;;;;;46.58;31.05;;;-1.50;99.90;;;;;;5005862;28;20054;-73
2023/01/25 01:40:59;;;;;;;53.58;33.25;;;-1.50;99.90;;;;;;5013198;28;20340;-72
2023/01/25 01:43:25;;;;;;;47.80;31.10;;;-1.50;99.90;;;;;;5003416;28;20069;-74
2023/01/25 01:45:55;;;;;;;43.60;29.02;;;-1.60;99.90;;;;;;5013762;28;20075;-73
2023/01/25 01:48:33;;;;;;;40.65;28.98;;;-1.60;99.90;;;;;;5006051;28;20158;-73
2023/01/25 01:51:17;;;;;;;41.30;27.42;;;-1.60;99.90;;;;;;5012977;28;20180;-73
2023/01/25 01:53:49;;;;;;;44.45;27.63;;;-1.60;99.90;;;;;;5006091;28;20022;-73
2023/01/25 01:56:21;;;;;;;40.63;28.42;;;-1.60;99.90;;;;;;4995466;28;20407;-73
2023/01/25 01:58:49;;;;;;;43.83;27.33;;;-1.60;99.90;;;;;;5009413;28;20490;-73
2023/01/25 02:01:16;;;;;;;42.15;27.13;;;-1.60;99.90;;;;;;5010624;28;20015;-73
2023/01/25 02:03:43;;;;;;;45.13;29.73;;;-1.60;99.90;;;;;;5015445;28;20109;-73
2023/01/25 02:06:14;;;;;;;43.38;28.20;;;-1.60;99.90;;;;;;5011297;28;20021;-73
2023/01/25 02:08:42;;;;;;;44.63;29.52;;;-1.60;99.90;;;;;;5015385;28;20026;-73
2023/01/25 02:11:09;;;;;;;41.83;28.10;;;-1.60;99.90;;;;;;5012903;28;20022;-73
2023/01/25 02:13:36;;;;;;;42.42;30.50;;;-1.70;99.90;;;;;;5015225;28;20033;-73
2023/01/25 02:16:02;;;;;;;53.95;35.90;;;-1.70;99.90;;;;;;5014071;28;20029;-73
2023/01/25 02:18:28;;;;;;;57.92;37.50;;;-1.70;99.90;;;;;;5015255;28;20026;-73
2023/01/25 02:20:56;;;;;;;50.13;33.10;;;-1.70;99.90;;;;;;5013119;28;20022;-72
2023/01/25 02:23:46;;;;;;;57.00;38.97;;;-1.70;99.90;;;;;;5005580;28;20053;-73
2023/01/25 02:26:13;;;;;;;54.45;33.63;;;-1.70;99.90;;;;;;5010584;28;20391;-72
2023/01/25 02:28:44;;;;;;;53.63;33.15;;;-1.70;99.90;;;;;;4998118;28;20138;-73
2023/01/25 02:31:09;;;;;;;56.97;36.28;;;-1.80;99.90;;;;;;5008166;28;20063;-72
2023/01/25 02:33:35;;;;;;;53.97;35.10;;;-1.80;99.90;;;;;;5005705;28;20046;-72
2023/01/25 02:36:07;;;;;;;55.25;37.05;;;-1.80;99.90;;;;;;5012061;28;20045;-73
2023/01/25 02:38:36;;;;;;;53.65;35.75;;;-1.80;99.90;;;;;;5001212;28;20026;-72
2023/01/25 02:41:11;;;;;;;54.22;35.72;;;-1.80;99.90;;;;;;5012157;28;20418;-73
2023/01/25 02:43:37;;;;;;;59.20;36.30;;;-1.80;99.90;;;;;;5007119;28;20106;-73
2023/01/25 02:46:26;;;;;;;59.05;38.38;;;-1.80;99.90;;;;;;5011956;28;20053;-72
2023/01/25 02:48:53;;;;;;;62.42;37.80;;;-1.80;99.90;;;;;;5009790;28;20042;-72
2023/01/25 02:51:19;;;;;;;57.58;38.00;;;-1.80;99.90;;;;;;5013660;28;20046;-72
2023/01/25 02:53:45;;;;;;;50.25;31.70;;;-1.80;99.90;;;;;;5013110;28;20030;-73
2023/01/25 02:56:11;;;;;;;45.13;30.23;;;-1.70;99.90;;;;;;5018164;28;20029;-73
2023/01/25 02:58:37;;;;;;;49.30;31.85;;;-1.60;99.90;;;;;;5012190;28;20064;-73
2023/01/25 03:01:02;;;;;;;48.92;30.27;;;-1.40;99.90;;;;;;5014034;28;20026;-73
2023/01/25 03:03:28;;;;;;;44.10;29.23;;;-1.30;99.90;;;;;;5005415;28;20156;-73
2023/01/25 03:05:54;;;;;;;50.60;33.15;;;-1.10;99.90;;;;;;5016725;28;20025;-73
2023/01/25 03:08:20;;;;;;;44.47;29.05;;;-1.00;99.90;;;;;;5008017;28;20033;-73
2023/01/25 03:10:45;;;;;;;42.97;27.50;;;-1.00;99.90;;;;;;5017483;28;20483;-73
2023/01/25 03:13:11;;;;;;;47.33;28.95;;;-0.90;99.90;;;;;;5007728;28;20084;-73
2023/01/25 03:15:37;;;;;;;45.13;29.73;;;-0.80;99.90;;;;;;5017794;28;20085;-73
2023/01/25 03:18:02;;;;;;;41.55;28.98;;;-0.70;99.90;;;;;;5007635;28;20116;-73
2023/01/25 03:20:28;;;;;;;39.45;28.00;;;-0.70;99.90;;;;;;5016056;28;20481;-73
2023/01/25 03:22:54;;;;;;;39.53;27.92;;;-0.70;99.90;;;;;;5009168;28;20026;-73
2023/01/25 03:25:20;;;;;;;43.58;28.55;;;-0.80;99.90;;;;;;5018595;28;20543;-73
2023/01/25 03:27:45;;;;;;;40.72;27.75;;;-0.70;99.90;;;;;;5010571;28;20026;-73
2023/01/25 03:30:11;;;;;;;41.15;27.40;;;-0.80;99.90;;;;;;5019268;28;20022;-73
2023/01/25 03:32:37;;;;;;;41.90;28.17;;;-0.70;99.90;;;;;;5017105;28;20052;-73
2023/01/25 03:35:03;;;;;;;42.28;27.13;;;-0.60;99.90;;;;;;5017990;28;20088;-73
2023/01/25 03:37:30;;;;;;;39.72;27.20;;;-0.70;99.90;;;;;;5016907;28;20034;-72
2023/01/25 03:39:59;;;;;;;39.30;28.15;;;-0.60;99.90;;;;;;5017742;28;20030;-73
2023/01/25 03:42:25;;;;;;;41.00;27.95;;;-0.60;99.90;;;;;;5017129;28;20515;-73
2023/01/25 03:44:50;;;;;;;39.38;26.13;;;-0.60;99.90;;;;;;5019151;28;20022;-72
2023/01/25 03:47:16;;;;;;;36.55;24.58;;;-0.70;99.90;;;;;;5012291;28;20053;-72
2023/01/25 03:49:42;;;;;;;39.15;28.92;;;-0.70;99.90;;;;;;5018878;28;20025;-72
2023/01/25 03:52:08;;;;;;;49.72;32.35;;;-0.70;99.90;;;;;;5012352;28;20049;-72
2023/01/25 03:54:34;;;;;;;262.27;102.35;;;-0.70;99.90;;;;;;5017259;28;20390;-72
2023/01/25 03:57:00;;;;;;;116.95;54.38;;;-0.70;99.90;;;;;;5012438;28;20034;-72
2023/01/25 03:59:25;;;;;;;408.48;162.93;;;-0.80;99.90;;;;;;5014845;28;20109;-72
2023/01/25 04:01:51;;;;;;;167.52;68.95;;;-0.80;99.90;;;;;;5014275;28;20030;-72
2023/01/25 04:04:17;;;;;;;56.40;35.53;;;-0.90;99.90;;;;;;5014854;28;20014;-72
2023/01/25 04:06:42;;;;;;;48.45;29.55;;;-1.00;99.90;;;;;;5010936;28;20081;-72
2023/01/25 04:09:08;;;;;;;41.53;27.98;;;-1.00;99.90;;;;;;5014352;28;20022;-73
2023/01/25 04:11:34;;;;;;;58.50;34.65;;;-0.90;99.90;;;;;;5011254;28;20052;-72
2023/01/25 04:14:00;;;;;;;62.65;36.00;;;-0.80;99.90;;;;;;5013998;28;20474;-72
2023/01/25 04:16:26;;;;;;;42.92;28.90;;;-0.70;99.90;;;;;;5012918;28;20060;-73
2023/01/25 04:18:52;;;;;;;50.35;31.05;;;-0.80;99.90;;;;;;5015077;28;20117;-73
2023/01/25 04:21:18;;;;;;;43.75;30.30;;;-0.70;99.90;;;;;;5014529;28;20061;-72
2023/01/25 04:23:43;;;;;;;52.55;31.48;;;-0.80;99.90;;;;;;5018620;28;20057;-73
2023/01/25 04:26:11;;;;;;;73.40;40.65;;;-0.80;99.90;;;;;;5018813;28;20085;-72
2023/01/25 04:28:37;;;;;;;71.95;40.50;;;-0.70;99.90;;;;;;5012057;28;20052;-73
2023/01/25 04:31:04;;;;;;;58.92;33.72;;;-0.60;99.90;;;;;;5013491;28;20516;-72
2023/01/25 04:33:31;;;;;;;44.80;29.02;;;-0.60;99.90;;;;;;5013411;28;20435;-72
2023/01/25 04:35:57;;;;;;;45.60;29.20;;;-0.60;99.90;;;;;;5012464;28;20014;-72
2023/01/25 04:38:22;;;;;;;63.60;35.33;;;-0.60;99.90;;;;;;5011780;28;20033;-72
2023/01/25 04:40:49;;;;;;;107.05;50.80;;;-0.60;99.90;;;;;;5013293;28;20030;-72
2023/01/25 04:43:16;;;;;;;144.40;69.57;;;-0.50;99.90;;;;;;5011599;28;20469;-72
2023/01/25 04:45:42;;;;;;;47.55;28.23;;;-0.40;99.90;;;;;;5015244;28;21077;-73
2023/01/25 04:48:10;;;;;;;50.97;30.52;;;-0.50;99.90;;;;;;5012358;28;20049;-73
2023/01/25 04:50:37;;;;;;;45.40;30.73;;;-0.50;99.90;;;;;;5015623;28;20042;-73
2023/01/25 04:53:03;;;;;;;39.70;26.92;;;-0.50;99.90;;;;;;5015771;28;20542;-72
2023/01/25 04:55:29;;;;;;;39.33;27.15;;;-0.50;99.90;;;;;;5015834;28;20029;-72
2023/01/25 04:57:55;;;;;;;64.60;37.15;;;-0.50;99.90;;;;;;5007325;28;20498;-72
2023/01/25 05:00:20;;;;;;;40.55;27.05;;;-0.60;99.90;;;;;;5015134;28;20049;-72
2023/01/25 05:02:46;;;;;;;245.75;105.40;;;-0.60;99.90;;;;;;5012803;28;20022;-72
2023/01/25 05:05:12;;;;;;;65.00;38.78;;;-0.60;99.90;;;;;;5016022;28;20022;-72
2023/01/25 05:07:38;;;;;;;37.97;25.17;;;-0.60;99.90;;;;;;5009655;28;20076;-73
2023/01/25 05:10:05;;;;;;;40.80;26.55;;;-0.70;99.90;;;;;;5016989;28;20023;-73
2023/01/25 05:12:30;;;;;;;41.45;28.30;;;-0.70;99.90;;;;;;5004042;28;20121;-73
2023/01/25 05:14:56;;;;;;;38.58;27.13;;;-0.70;99.90;;;;;;5016867;28;20114;-72
2023/01/25 05:17:22;;;;;;;43.58;27.17;;;-0.70;99.90;;;;;;5006121;28;20113;-72
2023/01/25 05:19:48;;;;;;;43.67;27.58;;;-0.60;99.90;;;;;;5031608;28;20030;-72
2023/01/25 05:22:16;;;;;;;39.95;26.60;;;-0.60;99.90;;;;;;5003586;28;20506;-73
2023/01/25 05:24:43;;;;;;;37.08;25.65;;;-0.70;99.90;;;;;;5016456;28;20026;-72
2023/01/25 05:27:11;;;;;;;115.20;65.25;;;-0.60;99.90;;;;;;5007735;28;20029;-73
2023/01/25 05:29:39;;;;;;;38.45;26.50;;;-0.60;99.90;;;;;;5005404;28;20033;-72
2023/01/25 05:32:16;;;;;;;43.80;26.63;;;-0.60;99.90;;;;;;5013386;28;20475;-73
2023/01/25 05:34:42;;;;;;;40.92;27.80;;;-0.50;99.90;;;;;;5016360;28;20025;-73
2023/01/25 05:37:10;;;;;;;45.30;28.50;;;-0.40;99.90;;;;;;5008232;28;20030;-73
2023/01/25 05:39:36;;;;;;;98.80;50.85;;;-0.50;99.90;;;;;;5007974;28;20501;-73
2023/01/25 05:42:02;;;;;;;39.03;27.90;;;-0.40;99.90;;;;;;5010387;28;20022;-73
2023/01/25 05:44:28;;;;;;;37.75;24.15;;;-0.50;99.90;;;;;;5007759;28;20026;-73
2023/01/25 05:46:54;;;;;;;37.10;26.15;;;-0.50;99.90;;;;;;5014987;28;20109;-73
2023/01/25 05:49:19;;;;;;;41.53;25.40;;;-0.50;99.90;;;;;;5008911;28;20593;-73
2023/01/25 05:51:46;;;;;;;36.30;25.60;;;-0.50;99.90;;;;;;5010401;28;20089;-72
2023/01/25 05:54:14;;;;;;;37.72;26.13;;;-0.40;99.90;;;;;;5010912;28;20029;-72
2023/01/25 05:56:40;;;;;;;39.97;25.35;;;-0.40;99.90;;;;;;5010448;28;20510;-72
2023/01/25 05:59:06;;;;;;;64.38;38.88;;;-0.30;99.90;;;;;;5010745;28;20041;-72
2023/01/25 06:01:32;;;;;;;39.13;25.67;;;-0.20;99.90;;;;;;5009415;28;20022;-72
2023/01/25 06:03:58;;;;;;;39.03;25.60;;;-0.20;99.90;;;;;;5006252;28;20026;-72
2023/01/25 06:06:24;;;;;;;72.40;43.35;;;-0.20;99.90;;;;;;5014288;28;20022;-72
2023/01/25 06:08:50;;;;;;;41.95;29.05;;;-0.10;99.90;;;;;;5006117;28;20542;-72
2023/01/25 06:11:19;;;;;;;50.00;31.80;;;-0.10;99.90;;;;;;5013352;28;20434;-72
2023/01/25 06:13:45;;;;;;;47.38;30.65;;;-0.10;99.90;;;;;;5006931;28;20081;-72
2023/01/25 06:16:11;;;;;;;44.58;30.48;;;-0.10;99.90;;;;;;5014455;28;20438;-72
2023/01/25 06:18:37;;;;;;;44.95;30.08;;;-0.20;99.90;;;;;;5007581;28;20045;-72
2023/01/25 06:21:04;;;;;;;48.38;34.20;;;-0.20;99.90;;;;;;5012806;28;21443;-72
2023/01/25 06:23:30;;;;;;;73.13;44.42;;;-0.30;99.90;;;;;;5006601;28;20494;-72
2023/01/25 06:26:14;;;;;;;41.00;28.05;;;-0.30;99.90;;;;;;5013278;28;20396;-72
2023/01/25 06:28:41;;;;;;;35.25;25.77;;;-0.20;99.90;;;;;;5008116;28;20483;-72
2023/01/25 06:31:13;;;;;;;55.70;35.65;;;-0.10;99.90;;;;;;5014218;28;20066;-73
2023/01/25 06:33:40;;;;;;;38.50;23.83;;;0.00;99.90;;;;;;5009668;28;20033;-73
2023/01/25 06:36:10;;;;;;;31.45;22.52;;;0.10;99.90;;;;;;5004054;28;20076;-72
2023/01/25 06:38:35;;;;;;;39.23;26.40;;;0.20;99.90;;;;;;5010037;28;20030;-72
2023/01/25 06:41:02;;;;;;;33.80;23.65;;;0.20;99.90;;;;;;5016824;28;20034;-72
2023/01/25 06:43:30;;;;;;;37.33;25.33;;;0.30;99.90;;;;;;5008865;28;20030;-72
2023/01/25 06:46:00;;;;;;;73.97;45.65;;;0.30;99.90;;;;;;5017234;28;20033;-72
2023/01/25 06:48:30;;;;;;;33.92;24.20;;;0.40;99.90;;;;;;5010978;28;20019;-72
2023/01/25 06:51:06;;;;;;;33.35;22.77;;;0.40;99.90;;;;;;5016024;28;20046;-73
2023/01/25 06:53:35;;;;;;;96.65;47.03;;;0.40;99.90;;;;;;5011654;28;20029;-72
2023/01/25 06:56:03;;;;;;;39.58;25.77;;;0.40;99.90;;;;;;5016610;28;20378;-72
2023/01/25 06:58:30;;;;;;;37.05;22.52;;;0.40;99.90;;;;;;5013240;28;20482;-72
2023/01/25 07:01:03;;;;;;;53.63;31.77;;;0.40;99.90;;;;;;5016951;28;20024;-72
2023/01/25 07:03:30;;;;;;;30.05;21.73;;;0.40;99.90;;;;;;5006386;28;20022;-73
2023/01/25 07:06:04;;;;;;;37.35;22.45;;;0.50;99.90;;;;;;5015870;28;20043;-72
2023/01/25 07:08:31;;;;;;;32.20;23.67;;;0.50;99.90;;;;;;5015364;28;20498;-73
2023/01/25 07:10:59;;;;;;;32.22;23.00;;;0.50;99.90;;;;;;5016751;28;20022;-72
2023/01/25 07:13:26;;;;;;;38.45;25.27;;;0.50;99.90;;;;;;5014179;28;20371;-73
2023/01/25 07:15:57;;;;;;;34.00;23.42;;;0.60;99.90;;;;;;5016913;28;20510;-73
2023/01/25 07:18:24;;;;;;;36.10;24.20;;;0.60;99.90;;;;;;5009543;28;20033;-73
2023/01/25 07:20:50;;;;;;;38.03;25.63;;;0.60;99.90;;;;;;5016320;28;20031;-73
2023/01/25 07:23:16;;;;;;;38.05;24.40;;;0.50;99.90;;;;;;5011480;28;20022;-72
2023/01/25 07:25:46;;;;;;;37.97;25.15;;;0.50;99.90;;;;;;5016176;28;20028;-73
2023/01/25 07:28:12;;;;;;;33.42;22.33;;;0.50;99.90;;;;;;5012672;28;20045;-73
2023/01/25 07:30:39;;;;;;;33.60;23.08;;;0.60;99.90;;;;;;5016773;28;20038;-73
2023/01/25 07:33:04;;;;;;;38.55;25.40;;;0.60;99.90;;;;;;5014869;28;20084;-72
2023/01/25 07:35:31;;;;;;;41.28;23.92;;;0.60;99.90;;;;;;5017771;28;20821;-73
2023/01/25 07:37:57;;;;;;;34.58;24.70;;;0.60;99.90;;;;;;5014452;28;20030;-72
2023/01/25 07:40:24;;;;;;;40.65;27.25;;;0.60;99.90;;;;;;5016716;28;20034;-72
2023/01/25 07:42:51;;;;;;;37.50;24.13;;;0.60;99.90;;;;;;5013490;28;20056;-72
2023/01/25 07:45:16;;;;;;;37.00;23.10;;;0.60;99.90;;;;;;5018815;28;20044;-72
2023/01/25 07:47:42;;;;;;;37.38;24.10;;;0.60;99.90;;;;;;5017131;28;20030;-73
2023/01/25 07:50:09;;;;;;;34.65;21.27;;;0.60;99.90;;;;;;5017626;28;20030;-72
2023/01/25 07:52:35;;;;;;;35.33;24.08;;;0.60;99.90;;;;;;5012141;28;20058;-72
2023/01/25 07:55:00;;;;;;;27.23;20.27;;;0.60;99.90;;;;;;5018985;28;20037;-72
2023/01/25 07:57:27;;;;;;;35.72;25.20;;;0.60;99.90;;;;;;5012180;28;20088;-73
2023/01/25 07:59:53;;;;;;;33.15;23.48;;;0.70;99.90;;;;;;5018534;28;20397;-72
2023/01/25 08:02:19;;;;;;;34.30;23.85;;;0.70;99.90;;;;;;5016876;28;20117;-72
2023/01/25 08:04:45;;;;;;;34.90;24.25;;;0.70;99.90;;;;;;5015102;28;20022;-72
2023/01/25 08:07:11;;;;;;;35.75;23.75;;;0.70;99.90;;;;;;5014748;28;20104;-71
2023/01/25 08:09:37;;;;;;;34.22;24.08;;;0.80;99.90;;;;;;5014717;28;20056;-71
2023/01/25 08:12:03;;;;;;;37.90;24.95;;;0.80;99.90;;;;;;5009501;28;20034;-71
2023/01/25 08:14:29;;;;;;;36.47;24.77;;;0.80;99.90;;;;;;5013991;28;20044;-70
2023/01/25 08:16:54;;;;;;;36.42;24.02;;;0.80;99.90;;;;;;5011481;28;20030;-70
2023/01/25 08:19:21;;;;;;;35.97;23.85;;;0.80;99.90;;;;;;5010292;28;20036;-70
2023/01/25 08:21:47;;;;;;;35.83;24.55;;;0.90;99.90;;;;;;5006182;28;20053;-70
2023/01/25 08:24:12;;;;;;;37.50;22.92;;;0.90;99.90;;;;;;5005729;28;20021;-69
2023/01/25 08:26:38;;;;;;;62.08;36.45;;;0.90;99.90;;;;;;5014012;28;20030;-70
2023/01/25 08:29:05;;;;;;;34.08;23.45;;;1.00;99.90;;;;;;5018093;28;20034;-69
2023/01/25 08:31:32;;;;;;;38.80;24.80;;;1.00;99.90;;;;;;5013647;28;20040;-70
2023/01/25 08:33:59;;;;;;;36.25;23.75;;;1.10;99.90;;;;;;5013249;28;20058;-70
2023/01/25 08:36:26;;;;;;;33.13;23.83;;;1.10;99.90;;;;;;5014183;28;20064;-69
2023/01/25 08:38:58;;;;;;;40.67;24.20;;;1.10;99.90;;;;;;5012945;28;20045;-69
2023/01/25 08:41:25;;;;;;;36.30;22.60;;;1.20;99.90;;;;;;5012574;28;20037;-70
2023/01/25 08:43:52;;;;;;;34.30;25.40;;;1.20;99.90;;;;;;5013624;28;20168;-70
2023/01/25 08:46:19;;;;;;;33.45;22.38;;;1.20;99.90;;;;;;4998687;28;20513;-69
2023/01/25 08:48:44;;;;;;;39.97;25.95;;;1.30;99.90;;;;;;5013908;28;20032;-69
2023/01/25 08:51:12;;;;;;;40.72;26.33;;;1.30;99.90;;;;;;5011201;28;20106;-70
2023/01/25 08:53:38;;;;;;;33.38;22.85;;;1.30;99.90;;;;;;5008680;28;20025;-69
2023/01/25 08:56:08;;;;;;;40.13;26.42;;;1.40;99.90;;;;;;5013961;28;20030;-69
2023/01/25 08:58:36;;;;;;;;;;;1.40;99.90;;;;;;5010513;28;20363;-70
2023/01/25 09:01:04;;;;;;;32.83;23.65;;;1.50;99.90;;;;;;5014094;28;19920;-69
2023/01/25 09:03:30;;;;;;;45.08;30.13;;;1.60;99.90;;;;;;5013565;28;20082;-70
2023/01/25 09:05:56;;;;;;;38.85;24.65;;;1.60;99.90;;;;;;5014230;28;20022;-69
2023/01/25 09:08:22;;;;;;;36.95;24.27;;;1.70;99.90;;;;;;5012676;28;20025;-70
2023/01/25 09:10:47;;;;;;;36.17;24.30;;;1.70;99.90;;;;;;5015821;28;20026;-69
2023/01/25 09:13:13;;;;;;;39.55;24.95;;;1.70;99.90;;;;;;5013485;28;20128;-70
2023/01/25 09:15:39;;;;;;;33.55;23.15;;;1.80;99.90;;;;;;5014060;28;20037;-69
2023/01/25 09:18:05;;;;;;;36.90;23.60;;;1.90;99.90;;;;;;5007099;28;20026;-69
2023/01/25 09:20:31;;;;;;;34.78;22.80;;;2.00;99.90;;;;;;5015886;28;20018;-70
2023/01/25 09:22:57;;;;;;;33.17;23.17;;;2.00;99.90;;;;;;5000235;28;20102;-70
2023/01/25 09:25:22;;;;;;;36.08;26.48;;;2.00;99.90;;;;;;5008584;28;20030;-70
2023/01/25 09:27:54;;;;;;;38.88;23.73;;;2.00;99.90;;;;;;5002241;28;20438;-70
2023/01/25 09:30:19;;;;;;;34.80;23.08;;;2.10;99.90;;;;;;5009783;28;20379;-70
2023/01/25 09:32:48;;;;;;;39.70;23.00;;;2.10;99.90;;;;;;5003574;28;20048;-70
2023/01/25 09:35:14;;;;;;;36.70;23.13;;;2.10;99.90;;;;;;4992685;28;20022;-70
2023/01/25 09:37:40;;;;;;;36.25;25.20;;;2.00;99.90;;;;;;5013604;28;20494;-70
2023/01/25 09:40:16;;;;;;;36.97;24.50;;;2.00;99.90;;;;;;5014549;28;20033;-70
2023/01/25 09:42:59;;;;;;;33.38;22.48;;;2.00;99.90;;;;;;5013699;28;20033;-70
2023/01/25 09:45:34;;;;;;;32.08;22.48;;;2.00;99.90;;;;;;5013620;28;20022;-70
2023/01/25 09:48:17;;;;;;;36.83;24.15;;;2.00;99.90;;;;;;5015711;28;20030;-70
2023/01/25 09:51:21;;;;;;;35.50;24.65;;;2.00;99.90;;;;;;5010895;28;20436;-69
2023/01/25 09:53:52;;;;;;;33.45;22.92;;;2.00;99.90;;;;;;5013648;28;20057;-70
2023/01/25 09:56:31;;;;;;;34.65;23.60;;;2.00;99.90;;;;;;5040338;28;20030;-70
2023/01/25 09:59:06;;;;;;;30.40;23.58;;;2.00;99.90;;;;;;5017722;28;20053;-70
2023/01/25 10:01:50;;;;;;;30.30;20.73;;;2.10;99.90;;;;;;5046367;28;20041;-70
2023/01/25 10:04:24;;;;;;;34.72;26.50;;;2.10;99.90;;;;;;5017902;28;20018;-69
2023/01/25 10:07:00;;;;;;;34.20;22.65;;;2.10;99.90;;;;;;5017679;28;20026;-70
2023/01/25 10:09:29;;;;;;;35.70;23.02;;;2.20;99.90;;;;;;5019262;28;20025;-70
2023/01/25 10:11:58;;;;;;;36.70;25.42;;;2.20;99.90;;;;;;5017763;28;20089;-70
2023/01/25 10:14:24;;;;;;;32.47;23.40;;;2.30;99.90;;;;;;5017378;28;20092;-70
2023/01/25 10:17:00;;;;;;;35.22;23.83;;;2.40;99.90;;;;;;5014858;28;20030;-70
2023/01/25 10:19:45;;;;;;;37.97;23.95;;;2.40;99.90;;;;;;5017607;28;20112;-70
2023/01/25 10:22:18;;;;;;;36.42;24.20;;;2.60;99.90;;;;;;5014332;28;20049;-70
2023/01/25 10:25:02;;;;;;;30.92;22.23;;;2.70;99.90;;;;;;5017142;28;20045;-70
2023/01/25 10:27:57;;;;;;;33.35;22.10;;;2.80;99.90;;;;;;5017010;28;20081;-70
2023/01/25 10:30:30;;;;;;;35.67;21.95;;;2.80;99.90;;;;;;5016737;28;20188;-71
2023/01/25 10:33:06;;;;;;;35.22;22.98;;;2.80;99.90;;;;;;5032261;28;20446;-70
2023/01/25 10:35:36;;;;;;;31.73;21.30;;;2.80;99.90;;;;;;5015557;28;20034;-70
2023/01/25 10:38:05;;;;;;;;;;;2.90;99.90;;;;;;5016742;28;20085;-70
2023/01/25 10:40:42;;;;;;;32.15;21.83;;;2.90;99.90;;;;;;5016287;28;19916;-70
2023/01/25 10:43:20;;;;;;;32.17;21.38;;;2.80;99.90;;;;;;5019017;28;20057;-70
2023/01/25 10:45:47;;;;;;;27.95;18.63;;;2.80;99.90;;;;;;5014814;28;20026;-70
2023/01/25 10:48:27;;;;;;;34.58;20.20;;;2.80;99.90;;;;;;5017885;28;20022;-70
2023/01/25 10:50:55;;;;;;;25.35;18.27;;;2.70;99.90;;;;;;5014709;28;20066;-70
2023/01/25 10:53:23;;;;;;;26.52;19.85;;;2.60;99.90;;;;;;5015976;28;20481;-71
2023/01/25 10:56:04;;;;;;;29.10;20.00;;;2.60;99.90;;;;;;5014010;28;20153;-70
2023/01/25 10:58:33;;;;;;;28.90;18.13;;;2.60;99.90;;;;;;5013104;28;20088;-70
2023/01/25 11:00:59;;;;;;;30.23;18.42;;;2.60;99.90;;;;;;5015956;28;20018;-70
2023/01/25 11:03:34;;;;;;;31.45;20.13;;;2.40;99.90;;;;;;5014705;28;20084;-70
2023/01/25 11:06:00;;;;;;;33.72;23.33;;;2.40;99.90;;;;;;5014531;28;20026;-70
2023/01/25 11:08:36;;;;;;;29.92;20.27;;;2.30;99.90;;;;;;5016574;28;20060;-70
2023/01/25 11:11:22;;;;;;;27.60;17.55;;;2.30;99.90;;;;;;5015372;28;20026;-70
2023/01/25 11:13:48;;;;;;;27.35;19.08;;;2.30;99.90;;;;;;5013336;28;20033;-70
2023/01/25 11:16:31;;;;;;;28.73;17.27;;;2.30;99.90;;;;;;5011629;28;20398;-71
2023/01/25 11:18:58;;;;;;;29.02;20.00;;;2.30;99.90;;;;;;5014543;28;20398;-69
2023/01/25 11:21:34;;;;;;;30.27;20.23;;;2.40;99.90;;;;;;5015168;28;20026;-71
2023/01/25 11:24:07;;;;;;;26.58;17.38;;;2.40;99.90;;;;;;5014006;28;20033;-69
2023/01/25 11:26:35;;;;;;;24.27;16.60;;;2.40;99.90;;;;;;5015944;28;20026;-69
2023/01/25 11:29:13;;;;;;;27.65;19.08;;;2.40;99.90;;;;;;5016836;28;20018;-69
2023/01/25 11:31:40;;;;;;;28.80;20.08;;;2.40;99.90;;;;;;5015721;28;20045;-71
2023/01/25 11:34:15;;;;;;;30.63;20.00;;;2.50;99.90;;;;;;5016436;28;20018;-71
2023/01/25 11:37:07;;;;;;;28.70;18.85;;;2.50;99.90;;;;;;5011357;28;20072;-71
2023/01/25 11:39:44;;;;;;;34.10;20.83;;;2.60;99.90;;;;;;5016965;28;20049;-69
2023/01/25 11:42:33;;;;;;;31.95;21.70;;;2.60;99.90;;;;;;5012451;28;20371;-69
2023/01/25 11:45:16;;;;;;;28.02;18.08;;;2.70;99.90;;;;;;5015248;28;20026;-69
2023/01/25 11:48:05;;;;;;;28.58;18.23;;;2.70;99.90;;;;;;5014363;28;20495;-71
2023/01/25 11:50:55;;;;;;;25.87;19.30;;;2.70;99.90;;;;;;4969144;28;1285586;-69
2023/01/25 11:53:34;;;;;;;22.87;17.87;;;2.70;99.90;;;;;;5014560;28;20026;-69
2023/01/25 11:56:21;;;;;;;31.90;21.30;;;2.70;99.90;;;;;;5014859;28;20269;-69
2023/01/25 11:59:08;;;;;;;26.42;19.10;;;2.60;99.90;;;;;;5032570;28;20494;-69
2023/01/25 12:02:07;;;;;;;26.75;18.38;;;2.60;99.90;;;;;;5015360;28;20482;-71
2023/01/25 12:05:02;;;;;;;36.67;22.77;;;2.60;99.90;;;;;;5015939;28;20056;-71
2023/01/25 12:07:47;;;;;;;29.00;21.17;;;2.50;99.90;;;;;;5013760;28;20080;-69
2023/01/25 12:10:44;;;;;;;26.08;18.63;;;2.50;99.90;;;;;;4999606;28;20026;-69
2023/01/25 12:13:32;;;;;;;22.95;16.35;;;2.50;99.90;;;;;;5016955;28;20036;-71
2023/01/25 12:16:17;;;;;;;28.60;19.50;;;2.50;99.90;;;;;;5011786;28;20056;-69
2023/01/25 12:19:05;;;;;;;26.50;18.92;;;2.40;99.90;;;;;;5012040;28;20034;-71
2023/01/25 12:22:08;;;;;;;27.90;20.35;;;2.50;99.90;;;;;;5012017;28;20049;-71
2023/01/25 12:24:40;;;;;;;27.35;18.50;;;2.50;99.90;;;;;;5015883;28;20053;-71
2023/01/25 12:27:27;;;;;;;24.13;16.63;;;2.50;99.90;;;;;;5015220;28;20037;-72
2023/01/25 12:30:09;;;;;;;29.73;21.10;;;2.50;99.90;;;;;;5017061;28;20041;-73
2023/01/25 12:32:53;;;;;;;27.98;18.30;;;2.50;99.90;;;;;;5011825;28;20394;-74
2023/01/25 12:35:44;;;;;;;20.92;16.23;;;2.60;99.90;;;;;;5013053;28;20053;-73
2023/01/25 12:38:21;;;;;;;26.48;19.23;;;2.60;99.90;;;;;;5025588;28;20502;-71
2023/01/25 12:40:55;;;;;;;28.23;18.98;;;2.60;99.90;;;;;;5012375;28;20023;-71
2023/01/25 12:43:29;;;;;;;24.60;18.30;;;2.60;99.90;;;;;;5013911;28;20036;-70